ePrivacy and GPDR Cookie Consent by Cookie Consent
EmailTwitter


Observations de surface / France / LFPO (07149)

Régions: Québec | Canada | États-Unis | Europe | France | UK | Ailleurs
Station
Affichage
Infos & localisation pour LFPO (07149) | Aide pour décoder les METARs

Observations prises le 2021-09-22 à 00H00 UTC à PARIS/ORLY, FR (LFPO)

Température: 12.0 Celsius

Point de rosée: 10.0 Celsius

Humidité relative: 88%

Vents: Nord à 4 km/h ou 2 noeuds.

Pression au niveau moyen de la mer: 103.00 kilopascals.

Observation METAR:

LFPO 220000Z 36002KT CAVOK 12/10 Q1030 NOSIG=